KEAN

Phifer Airfield Airport

Wheatland, Wyoming, USA
METAR KEAN 231115Z AUTO 09008KT 10SM CLR 04/02 A3021 RMK AO2 T00400020
Observed Flight Rules
Oct-23 @ 11:15 UTC (34 minutes ago) Visual Flight Rules
Wind Visibility Clouds
90° at 8 knots 10 miles
  • Clear skies
Temperatures Readings
Current 4°C / 39°F
Dewpoint 2°C / 36°F
Humidity 87%
Altimeter 30.21" Hg
Pressure 1023 hPa
Elevation 1456
METAR KEAN 231115Z AUTO 09008KT 10SM CLR 04/02 A3021 RMK AO2 T00400020
Observed Flight Rules
Oct-23 @ 11:15 UTC
(34 minutes ago)
VFR
Wind Visibility
90° at 8 knots 10 miles
Clouds
  • Clear skies
Temperature Dewpoint
4°C / 39°F 2°C / 36°F
Humidity Altimeter Pressure
87% 30.21" Hg 1023 hPa